createdAt,value
2023-04-28T00:00:04.380Z,99270.44
2023-04-28T00:02:37.117Z,99252.25
2023-04-28T00:05:05.154Z,99264.28
2023-04-28T00:07:35.064Z,99270.34
2023-04-28T00:10:02.631Z,99269.47
2023-04-28T00:12:33.664Z,99266.09
2023-04-28T00:15:01.551Z,99262.59
2023-04-28T00:17:35.168Z,99253.06
2023-04-28T00:20:03.280Z,99252.22
2023-04-28T00:22:33.516Z,99250.50
2023-04-28T00:25:01.477Z,99257.31
2023-04-28T00:27:29.452Z,99252.16
2023-04-28T00:29:56.943Z,99255.59
2023-04-28T00:32:24.511Z,99250.41
2023-04-28T00:34:53.402Z,99254.72
2023-04-28T00:37:21.169Z,99232.28
2023-04-28T00:39:48.965Z,99243.59
2023-04-28T00:42:16.578Z,99235.78
2023-04-28T00:44:44.210Z,99239.22
2023-04-28T00:47:11.999Z,99229.75
2023-04-28T00:49:39.904Z,99243.53
2023-04-28T00:52:07.433Z,99241.81
2023-04-28T00:54:35.153Z,99241.91
2023-04-28T00:57:04.926Z,99230.69
2023-04-28T00:59:32.615Z,99234.06
2023-04-28T01:02:00.895Z,99241.00
2023-04-28T01:04:29.858Z,99239.22
2023-04-28T01:06:58.743Z,99245.22
2023-04-28T01:09:26.522Z,99242.63
2023-04-28T01:11:55.755Z,99243.44
2023-04-28T01:14:42.504Z,99244.28
2023-04-28T01:17:10.862Z,99247.63
2023-04-28T01:19:39.081Z,99239.84
2023-04-28T01:22:07.391Z,99224.25
2023-04-28T01:24:35.006Z,99241.56
2023-04-28T01:27:06.166Z,99243.22
2023-04-28T01:29:33.787Z,99243.22
2023-04-28T01:32:02.070Z,99248.25
2023-04-28T01:34:29.790Z,99248.22
2023-04-28T01:36:57.305Z,99257.59
2023-04-28T01:39:24.925Z,99244.53
2023-04-28T01:41:52.554Z,99258.25
2023-04-28T01:44:20.180Z,99251.28
2023-04-28T01:46:49.570Z,99252.03
2023-04-28T01:49:17.087Z,99254.59
2023-04-28T01:51:45.109Z,99249.47
2023-04-28T01:54:13.266Z,99244.28
2023-04-28T01:56:41.394Z,99247.72
2023-04-28T01:59:09.065Z,99248.50
2023-04-28T02:01:36.849Z,99247.63
2023-04-28T02:04:04.589Z,99241.66
2023-04-28T02:06:35.165Z,99239.94
2023-04-28T02:09:02.819Z,99236.53
2023-04-28T02:11:30.312Z,99233.19
2023-04-28T02:13:58.596Z,99243.53
2023-04-28T02:16:46.335Z,99246.13
2023-04-28T02:19:14.944Z,99241.81
2023-04-28T02:21:43.487Z,99244.41
2023-04-28T02:24:11.101Z,99236.75
2023-04-28T02:26:38.671Z,99230.75
2023-04-28T02:29:06.268Z,99237.75
2023-04-28T02:31:34.340Z,99231.72
2023-04-28T02:34:02.044Z,99235.16
2023-04-28T02:36:29.758Z,99253.22
2023-04-28T02:38:57.798Z,99248.81
2023-04-28T02:41:26.481Z,99258.16
2023-04-28T02:43:53.988Z,99250.22
2023-04-28T02:46:21.616Z,99253.72
2023-04-28T02:48:49.191Z,99254.56
2023-04-28T02:51:16.734Z,99253.63
2023-04-28T02:53:44.460Z,99259.66
2023-04-28T02:56:12.184Z,99258.75
2023-04-28T02:58:39.796Z,99262.34
2023-04-28T03:01:07.348Z,99254.56
2023-04-28T03:03:35.170Z,99261.50
2023-04-28T03:06:03.296Z,99252.88
2023-04-28T03:08:30.885Z,99258.94
2023-04-28T03:10:58.515Z,99258.94
2023-04-28T03:13:26.871Z,99260.66
2023-04-28T03:15:54.517Z,99252.97
2023-04-28T03:18:23.447Z,99253.78
2023-04-28T03:20:51.208Z,99262.47
2023-04-28T03:23:18.708Z,99275.38
2023-04-28T03:25:46.370Z,99279.66
2023-04-28T03:28:13.934Z,99273.50
2023-04-28T03:30:41.496Z,99270.03
2023-04-28T03:33:09.217Z,99271.84
2023-04-28T03:35:36.983Z,99277.09
2023-04-28T03:38:04.974Z,99281.50
2023-04-28T03:40:32.801Z,99276.44
2023-04-28T03:43:12.846Z,99286.03
2023-04-28T03:45:47.049Z,99292.13
2023-04-28T03:48:15.046Z,99284.53
2023-04-28T03:50:43.498Z,99289.03
2023-04-28T03:53:11.901Z,99287.50
2023-04-28T03:55:39.614Z,99297.13
2023-04-28T03:58:07.115Z,99292.03
2023-04-28T04:00:35.654Z,99292.16
2023-04-28T04:03:03.901Z,99294.03
2023-04-28T04:05:31.712Z,99301.84
2023-04-28T04:07:59.394Z,99295.03
2023-04-28T04:10:26.942Z,99298.63
2023-04-28T04:12:54.750Z,99299.50
2023-04-28T04:15:22.427Z,99303.06
2023-04-28T04:17:50.130Z,99299.66
2023-04-28T04:20:17.800Z,99307.44
2023-04-28T04:22:47.031Z,99303.06
2023-04-28T04:25:15.970Z,99287.47
2023-04-28T04:27:49.017Z,99284.97
2023-04-28T04:30:16.640Z,99289.44
2023-04-28T04:32:44.334Z,99301.53
2023-04-28T04:35:12.957Z,99311.00
2023-04-28T04:37:40.979Z,99324.81
2023-04-28T04:40:09.252Z,99311.88
2023-04-28T04:42:44.374Z,99315.22
2023-04-28T04:45:18.955Z,99316.94
2023-04-28T04:47:47.609Z,99315.28
2023-04-28T04:50:15.576Z,99315.31
2023-04-28T04:52:43.296Z,99316.25
2023-04-28T04:55:13.903Z,99315.50
2023-04-28T04:57:42.923Z,99319.09
2023-04-28T05:00:30.913Z,99326.09
2023-04-28T05:03:00.844Z,99335.66
2023-04-28T05:05:28.841Z,99332.16
2023-04-28T05:08:12.533Z,99326.94
2023-04-28T05:10:40.515Z,99329.53
2023-04-28T05:13:08.131Z,99324.38
2023-04-28T05:15:36.222Z,99320.03
2023-04-28T05:18:23.855Z,99328.06
2023-04-28T05:20:51.300Z,99330.41
2023-04-28T05:23:20.157Z,99329.47
2023-04-28T05:25:49.038Z,99336.41
2023-04-28T05:28:16.647Z,99340.81
2023-04-28T05:30:45.884Z,99339.25
2023-04-28T05:33:14.171Z,99342.81
2023-04-28T05:35:43.106Z,99344.66
2023-04-28T05:38:11.305Z,99340.47
2023-04-28T05:40:39.245Z,99328.34
2023-04-28T05:43:07.268Z,99336.03
2023-04-28T05:45:35.321Z,99342.06
2023-04-28T05:48:05.180Z,99326.47
2023-04-28T05:50:33.307Z,99329.13
2023-04-28T05:53:02.623Z,99333.56
2023-04-28T05:55:31.585Z,99326.72
2023-04-28T05:57:59.958Z,99337.19
2023-04-28T06:00:28.292Z,99340.66
2023-04-28T06:02:59.757Z,99335.47
2023-04-28T06:05:30.548Z,99334.59
2023-04-28T06:07:58.247Z,99332.88
2023-04-28T06:10:26.652Z,99336.31
2023-04-28T06:12:54.385Z,99326.88
2023-04-28T06:15:22.270Z,99330.41
2023-04-28T06:17:49.970Z,99321.00
2023-04-28T06:20:18.369Z,99327.13
2023-04-28T06:22:46.014Z,99323.75
2023-04-28T06:25:13.758Z,99326.34
2023-04-28T06:27:48.427Z,99323.81
2023-04-28T06:30:20.514Z,99323.00
2023-04-28T06:32:48.357Z,99329.09
2023-04-28T06:35:16.874Z,99325.63
2023-04-28T06:37:44.662Z,99330.78
2023-04-28T06:40:12.385Z,99336.00
2023-04-28T06:42:44.316Z,99316.13
2023-04-28T06:45:17.258Z,99313.53
2023-04-28T06:47:45.960Z,99335.13
2023-04-28T06:50:13.862Z,99321.28
2023-04-28T06:52:41.762Z,99325.66
2023-04-28T06:55:09.964Z,99327.44
2023-04-28T06:57:38.283Z,99322.25
2023-04-28T07:00:08.505Z,99329.16
2023-04-28T07:02:37.112Z,99332.69
2023-04-28T07:05:05.296Z,99319.75
2023-04-28T07:07:33.801Z,99325.84
2023-04-28T07:10:02.330Z,99331.88
2023-04-28T07:12:31.603Z,99331.88
2023-04-28T07:14:59.216Z,99339.63
2023-04-28T07:17:26.692Z,99334.44
2023-04-28T07:19:54.217Z,99336.13
2023-04-28T07:22:21.833Z,99333.50
2023-04-28T07:24:49.417Z,99345.53
2023-04-28T07:27:17.332Z,99344.66
2023-04-28T07:29:45.019Z,99350.63
2023-04-28T07:32:12.742Z,99345.41
2023-04-28T07:34:40.307Z,99348.00
2023-04-28T07:37:08.251Z,99360.97
2023-04-28T07:39:35.883Z,99349.66
2023-04-28T07:42:03.774Z,99355.66
2023-04-28T07:44:32.145Z,99352.19
2023-04-28T07:47:00.316Z,99352.25
2023-04-28T07:49:31.953Z,99345.53
2023-04-28T07:51:59.497Z,99343.88
2023-04-28T07:54:26.974Z,99346.56
2023-04-28T07:56:58.180Z,99346.63
2023-04-28T07:59:26.005Z,99341.34
2023-04-28T08:01:53.858Z,99335.03
2023-04-28T08:04:22.205Z,99333.97
2023-04-28T08:06:50.410Z,99338.53
2023-04-28T08:09:17.929Z,99343.97
2023-04-28T08:11:45.977Z,99340.59
2023-04-28T08:14:14.146Z,99340.53
2023-04-28T08:16:42.054Z,99339.59
2023-04-28T08:19:10.040Z,99344.72
2023-04-28T08:21:37.596Z,99348.03
2023-04-28T08:24:05.369Z,99344.50
2023-04-28T08:26:32.953Z,99346.19
2023-04-28T08:29:00.457Z,99350.47
2023-04-28T08:31:28.172Z,99352.09
2023-04-28T08:33:55.842Z,99351.13
2023-04-28T08:36:25.204Z,99351.94
2023-04-28T08:38:52.964Z,99349.28
2023-04-28T08:41:21.870Z,99351.81
2023-04-28T08:43:49.878Z,99365.63
2023-04-28T08:46:21.537Z,99368.13
2023-04-28T08:48:50.162Z,99356.91
2023-04-28T08:51:28.886Z,99357.78
2023-04-28T08:56:39.292Z,99367.22
2023-04-28T08:59:07.240Z,99365.41
2023-04-28T09:01:34.875Z,99373.06
2023-04-28T09:04:03.603Z,99365.28
2023-04-28T09:06:35.414Z,99374.72
2023-04-28T09:09:23.449Z,99367.91
2023-04-28T09:11:56.178Z,99363.63
2023-04-28T09:14:24.265Z,99357.78
2023-04-28T09:16:52.782Z,99352.84
2023-04-28T09:19:21.380Z,99348.00
2023-04-28T09:21:56.090Z,99357.78
2023-04-28T09:24:33.960Z,99347.47
2023-04-28T09:27:03.519Z,99357.81
2023-04-28T09:29:32.208Z,99359.47
2023-04-28T09:32:22.434Z,99361.19
2023-04-28T09:34:53.920Z,99348.28
2023-04-28T09:37:23.633Z,99350.94
2023-04-28T09:39:53.020Z,99348.41
2023-04-28T09:42:35.697Z,99350.13
2023-04-28T09:45:14.198Z,99349.28
2023-04-28T09:47:48.022Z,99347.47
2023-04-28T09:50:18.406Z,99352.59
2023-04-28T09:52:59.358Z,99361.19
2023-04-28T09:55:28.470Z,99359.38
2023-04-28T09:57:56.605Z,99351.47
2023-04-28T10:00:24.939Z,99358.28
2023-04-28T10:02:53.353Z,99361.72
2023-04-28T10:05:23.833Z,99363.44
2023-04-28T10:07:55.320Z,99357.34
2023-04-28T10:10:25.287Z,99361.69
2023-04-28T10:12:53.272Z,99364.38
2023-04-28T10:15:20.875Z,99355.84
2023-04-28T10:17:50.959Z,99362.91
2023-04-28T10:20:20.141Z,99351.78
2023-04-28T10:23:09.424Z,99360.44
2023-04-28T10:25:38.812Z,99350.31
2023-04-28T10:28:09.403Z,99361.94
2023-04-28T10:30:38.078Z,99353.25
2023-04-28T10:33:15.027Z,99357.00
2023-04-28T10:35:45.320Z,99361.72
2023-04-28T10:38:14.248Z,99355.81
2023-04-28T10:40:46.639Z,99354.16
2023-04-28T10:43:37.049Z,99357.78
2023-04-28T10:46:06.712Z,99370.00
2023-04-28T10:48:34.734Z,99368.31
2023-04-28T10:51:09.676Z,99371.75
2023-04-28T10:53:47.169Z,99365.66
2023-04-28T10:56:27.479Z,99376.88
2023-04-28T10:58:57.027Z,99377.69
2023-04-28T11:01:26.311Z,99380.25
2023-04-28T11:04:10.978Z,99374.13
2023-04-28T11:06:43.756Z,99380.19
2023-04-28T11:09:20.012Z,99378.41
2023-04-28T11:12:03.525Z,99368.78
2023-04-28T11:14:33.900Z,99383.44
2023-04-28T11:17:05.561Z,99374.78
2023-04-28T11:19:38.169Z,99380.75
2023-04-28T11:22:13.828Z,99387.63
2023-04-28T11:24:41.912Z,99390.97
2023-04-28T11:27:09.490Z,99396.03
2023-04-28T11:29:39.899Z,99389.06
2023-04-28T11:32:10.349Z,99390.81
2023-04-28T11:34:38.371Z,99379.69
2023-04-28T11:37:09.984Z,99383.31
2023-04-28T11:39:37.801Z,99389.44
2023-04-28T11:42:11.438Z,99393.06
2023-04-28T11:44:39.466Z,99392.28
2023-04-28T11:47:07.450Z,99379.34
2023-04-28T11:49:46.267Z,99387.19
2023-04-28T11:52:14.221Z,99382.88
2023-04-28T11:54:44.783Z,99388.09
2023-04-28T11:57:20.105Z,99380.28
2023-04-28T11:59:49.280Z,99372.47
2023-04-28T12:02:28.198Z,99370.78
2023-04-28T12:04:56.197Z,99366.41
2023-04-28T12:07:23.805Z,99369.81
2023-04-28T12:10:10.908Z,99381.06
2023-04-28T12:15:09.649Z,99375.81
2023-04-28T12:17:42.021Z,99370.63
2023-04-28T12:20:11.964Z,99367.13
2023-04-28T12:22:50.739Z,99365.44
2023-04-28T12:25:19.704Z,99356.69
2023-04-28T12:28:08.502Z,99360.16
2023-04-28T12:30:43.966Z,99374.72
2023-04-28T12:33:25.697Z,99381.63
2023-04-28T12:35:57.104Z,99381.47
2023-04-28T12:38:25.371Z,99379.63
2023-04-28T12:40:53.945Z,99380.38
2023-04-28T12:43:23.532Z,99386.31
2023-04-28T12:45:53.670Z,99386.19
2023-04-28T12:48:24.127Z,99386.09
2023-04-28T12:50:52.541Z,99392.09
2023-04-28T12:53:20.356Z,99388.59
2023-04-28T12:55:47.955Z,99396.31
2023-04-28T12:58:18.085Z,99389.38
2023-04-28T13:00:46.310Z,99387.63
2023-04-28T13:03:13.953Z,99385.06
2023-04-28T13:05:41.777Z,99381.53
2023-04-28T13:08:09.619Z,99385.94
2023-04-28T13:10:37.284Z,99389.41
2023-04-28T13:13:05.642Z,99386.81
2023-04-28T13:15:33.499Z,99385.13
2023-04-28T13:18:01.343Z,99386.81
2023-04-28T13:20:29.047Z,99388.50
2023-04-28T13:22:56.553Z,99389.31
2023-04-28T13:25:24.151Z,99395.34
2023-04-28T13:27:52.078Z,99409.03
2023-04-28T13:30:19.787Z,99408.03
2023-04-28T13:32:47.259Z,99413.94
2023-04-28T13:35:14.882Z,99413.69
2023-04-28T13:37:45.927Z,99415.31
2023-04-28T13:40:13.879Z,99416.06
2023-04-28T13:42:41.504Z,99423.72
2023-04-28T13:45:09.331Z,99420.16
2023-04-28T13:47:36.909Z,99432.19
2023-04-28T13:50:04.833Z,99420.84
2023-04-28T13:52:32.564Z,99429.34
2023-04-28T13:55:00.050Z,99427.59
2023-04-28T13:57:27.812Z,99424.88
2023-04-28T13:59:55.544Z,99437.69
2023-04-28T14:02:23.492Z,99429.75
2023-04-28T14:04:51.787Z,99439.94
2023-04-28T14:07:19.830Z,99449.34
2023-04-28T14:09:47.866Z,99456.13
2023-04-28T14:12:16.339Z,99461.84
2023-04-28T14:14:44.053Z,99464.22
2023-04-28T14:17:12.640Z,99465.94
2023-04-28T14:19:40.371Z,99468.38
2023-04-28T14:22:07.870Z,99471.81
2023-04-28T14:24:35.664Z,99463.94
2023-04-28T14:27:03.212Z,99469.06
2023-04-28T14:29:30.850Z,99465.66
2023-04-28T14:31:58.338Z,99466.47
2023-04-28T14:34:25.902Z,99467.31
2023-04-28T14:36:53.466Z,99462.00
2023-04-28T14:39:21.283Z,99470.50
2023-04-28T14:41:48.927Z,99472.06
2023-04-28T14:44:16.661Z,99470.16
2023-04-28T14:46:44.516Z,99480.41
2023-04-28T14:49:12.149Z,99472.53
2023-04-28T14:51:39.997Z,99481.97
2023-04-28T14:54:09.310Z,99486.13
2023-04-28T14:56:36.797Z,99484.41
2023-04-28T14:59:04.450Z,99486.81
2023-04-28T15:01:32.131Z,99471.16
2023-04-28T15:03:59.856Z,99470.19
2023-04-28T15:06:28.357Z,99472.78
2023-04-28T15:08:56.070Z,99472.75
2023-04-28T15:11:23.765Z,99469.06
2023-04-28T15:13:51.364Z,99479.44
2023-04-28T15:16:19.606Z,99473.28
2023-04-28T15:18:47.347Z,99485.25
2023-04-28T15:21:17.562Z,99494.56
2023-04-28T15:23:46.696Z,99490.94
2023-04-28T15:26:14.398Z,99502.19
2023-04-28T15:28:42.121Z,99498.69
2023-04-28T15:31:09.650Z,99496.06
2023-04-28T15:33:37.500Z,99506.25
2023-04-28T15:36:07.922Z,99501.88
2023-04-28T15:38:35.685Z,99508.59
2023-04-28T15:41:03.213Z,99505.09
2023-04-28T15:43:30.811Z,99508.41
2023-04-28T15:45:59.612Z,99507.44
2023-04-28T15:48:27.497Z,99510.78
2023-04-28T15:50:54.994Z,99499.56
2023-04-28T15:53:22.807Z,99492.72
2023-04-28T15:55:50.802Z,99490.81
2023-04-28T15:58:18.323Z,99502.97
2023-04-28T16:00:46.250Z,99500.31
2023-04-28T16:03:13.971Z,99497.81
2023-04-28T16:05:41.680Z,99508.16
2023-04-28T16:08:09.635Z,99519.19
2023-04-28T16:10:38.550Z,99519.91
2023-04-28T16:13:10.891Z,99518.16
2023-04-28T16:15:38.949Z,99497.34
2023-04-28T16:18:07.159Z,99516.22
2023-04-28T16:20:34.709Z,99506.78
2023-04-28T16:23:03.372Z,99515.44
2023-04-28T16:25:31.396Z,99517.25
2023-04-28T16:27:59.040Z,99527.69
2023-04-28T16:30:26.686Z,99535.31
2023-04-28T16:32:58.354Z,99531.88
2023-04-28T16:35:26.200Z,99530.13
2023-04-28T16:37:53.656Z,99525.84
2023-04-28T16:40:21.698Z,99522.41
2023-04-28T16:42:49.385Z,99529.22
2023-04-28T16:45:16.966Z,99531.72
2023-04-28T16:47:44.824Z,99536.69
2023-04-28T16:50:14.957Z,99539.97
2023-04-28T16:52:43.033Z,99537.41
2023-04-28T16:55:10.860Z,99541.69
2023-04-28T16:57:38.442Z,99534.63
2023-04-28T17:00:06.893Z,99526.81
2023-04-28T17:02:34.894Z,99534.59
2023-04-28T17:05:02.554Z,99536.97
2023-04-28T17:07:30.704Z,99548.97
2023-04-28T17:09:58.288Z,99535.81
2023-04-28T17:12:25.986Z,99538.22
2023-04-28T17:14:54.757Z,99544.28
2023-04-28T17:17:22.428Z,99549.22
2023-04-28T17:19:50.324Z,99542.31
2023-04-28T17:22:18.289Z,99548.34
2023-04-28T17:24:45.851Z,99552.56
2023-04-28T17:27:14.816Z,99552.53
2023-04-28T17:29:43.489Z,99548.91
2023-04-28T17:32:11.220Z,99566.16
2023-04-28T17:34:38.978Z,99567.72
2023-04-28T17:37:06.952Z,99577.97
2023-04-28T17:39:34.810Z,99567.53
2023-04-28T17:42:02.699Z,99572.75
2023-04-28T17:44:30.573Z,99572.91
2023-04-28T17:46:58.600Z,99566.00
2023-04-28T17:49:26.452Z,99570.16
2023-04-28T17:51:54.098Z,99579.38
2023-04-28T17:54:21.827Z,99586.03
2023-04-28T17:56:51.786Z,99578.09
2023-04-28T17:59:19.424Z,99578.09
2023-04-28T18:01:47.071Z,99591.66
2023-04-28T18:04:14.866Z,99589.78
2023-04-28T18:06:42.404Z,99583.50
2023-04-28T18:09:10.047Z,99588.44
2023-04-28T18:11:37.689Z,99588.19
2023-04-28T18:14:05.188Z,99577.56
2023-04-28T18:16:32.871Z,99581.75
2023-04-28T18:19:00.569Z,99579.28
2023-04-28T18:21:28.288Z,99583.28
2023-04-28T18:23:55.947Z,99586.41
2023-04-28T18:26:23.500Z,99586.81
2023-04-28T18:28:51.160Z,99579.50
2023-04-28T18:31:18.737Z,99593.03
2023-04-28T18:33:46.261Z,99582.44
2023-04-28T18:36:13.967Z,99596.22
2023-04-28T18:38:41.549Z,99585.97
2023-04-28T18:41:18.040Z,99588.97
2023-04-28T18:43:45.721Z,99581.75
2023-04-28T18:46:13.764Z,99575.78
2023-04-28T18:48:41.614Z,99577.31
2023-04-28T18:51:09.112Z,99586.75
2023-04-28T18:53:36.999Z,99577.91
2023-04-28T18:56:04.951Z,99576.16
2023-04-28T18:58:32.833Z,99582.13
2023-04-28T19:01:00.629Z,99575.03
2023-04-28T19:03:28.556Z,99587.03
2023-04-28T19:05:56.141Z,99591.84
2023-04-28T19:08:23.804Z,99595.13
2023-04-28T19:10:51.453Z,99601.72
2023-04-28T19:13:20.112Z,99609.28
2023-04-28T19:15:47.807Z,99597.94
2023-04-28T19:18:15.959Z,99604.00
2023-04-28T19:20:43.624Z,99601.31
2023-04-28T19:23:11.315Z,99602.91
2023-04-28T19:25:38.919Z,99612.94
2023-04-28T19:28:06.480Z,99607.47
2023-04-28T19:30:34.452Z,99605.63
2023-04-28T19:33:02.067Z,99599.59
2023-04-28T19:35:29.633Z,99619.94
2023-04-28T19:37:57.272Z,99615.44
2023-04-28T19:40:26.397Z,99602.28
2023-04-28T19:42:55.557Z,99598.00
2023-04-28T19:45:23.429Z,99590.31
2023-04-28T19:47:51.948Z,99595.41
2023-04-28T19:50:19.614Z,99592.03
2023-04-28T19:52:47.697Z,99595.41
2023-04-28T19:55:18.605Z,99600.59
2023-04-28T19:57:47.951Z,99598.66
2023-04-28T20:00:16.098Z,99590.91
2023-04-28T20:02:44.775Z,99585.88
2023-04-28T20:05:13.070Z,99587.56
2023-04-28T20:07:42.747Z,99587.47
2023-04-28T20:10:11.930Z,99600.22
2023-04-28T20:12:40.619Z,99596.03
2023-04-28T20:15:09.089Z,99594.38
2023-04-28T20:17:36.897Z,99593.63
2023-04-28T20:20:07.787Z,99591.94
2023-04-28T20:22:35.593Z,99586.53
2023-04-28T20:25:06.134Z,99602.78
2023-04-28T20:27:34.358Z,99598.34
2023-04-28T20:30:02.277Z,99604.25
2023-04-28T20:32:33.876Z,99594.56
2023-04-28T20:35:02.982Z,99603.06
2023-04-28T20:37:34.257Z,99606.31
2023-04-28T20:40:01.924Z,99596.75
2023-04-28T20:42:33.452Z,99593.13
2023-04-28T20:45:01.213Z,99593.94
2023-04-28T20:47:32.469Z,99588.00
2023-04-28T20:50:00.484Z,99598.94
2023-04-28T20:52:28.858Z,99607.56
2023-04-28T20:54:57.092Z,99606.69
2023-04-28T20:57:24.717Z,99599.75
2023-04-28T20:59:52.631Z,99604.50
2023-04-28T21:02:20.667Z,99603.50
2023-04-28T21:04:48.575Z,99612.94
2023-04-28T21:07:17.259Z,99599.88
2023-04-28T21:09:44.901Z,99613.56
2023-04-28T21:12:13.863Z,99609.88
2023-04-28T21:14:41.443Z,99606.31
2023-04-28T21:17:09.195Z,99598.69
2023-04-28T21:19:37.178Z,99582.97
2023-04-28T21:22:04.847Z,99599.31
2023-04-28T21:24:32.596Z,99610.16
2023-04-28T21:27:00.148Z,99605.75
2023-04-28T21:29:28.299Z,99609.22
2023-04-28T21:31:55.981Z,99604.09
2023-04-28T21:34:23.490Z,99601.00
2023-04-28T21:36:51.516Z,99597.69
2023-04-28T21:39:19.133Z,99584.09
2023-04-28T21:41:46.990Z,99594.34
2023-04-28T21:44:14.542Z,99605.66
2023-04-28T21:46:42.042Z,99601.50
2023-04-28T21:49:09.594Z,99601.00
2023-04-28T21:51:37.814Z,99596.56
2023-04-28T21:54:05.772Z,99600.88
2023-04-28T21:56:34.087Z,99595.38
2023-04-28T21:59:01.715Z,99612.38
2023-04-28T22:01:30.055Z,99610.31
2023-04-28T22:03:58.778Z,99603.13
2023-04-28T22:06:27.074Z,99597.03
2023-04-28T22:08:54.580Z,99592.63
2023-04-28T22:11:22.391Z,99579.72
2023-04-28T22:13:49.873Z,99575.47
2023-04-28T22:16:17.575Z,99573.03
2023-04-28T22:18:45.399Z,99568.47
2023-04-28T22:21:14.002Z,99576.19
2023-04-28T22:23:41.605Z,99577.88
2023-04-28T22:26:09.199Z,99588.38
2023-04-28T22:28:37.534Z,99580.22
2023-04-28T22:31:05.217Z,99586.00
2023-04-28T22:33:33.588Z,99568.56
2023-04-28T22:36:01.250Z,99569.38
2023-04-28T22:38:28.766Z,99566.81
2023-04-28T22:40:56.448Z,99562.84
2023-04-28T22:43:24.015Z,99556.78
2023-04-28T22:45:52.624Z,99561.72
2023-04-28T22:48:20.388Z,99548.59
2023-04-28T22:50:47.854Z,99561.50
2023-04-28T22:53:15.615Z,99569.06
2023-04-28T22:55:43.618Z,99576.78
2023-04-28T22:58:11.138Z,99570.66
2023-04-28T23:00:38.637Z,99573.03
2023-04-28T23:03:06.290Z,99575.91
2023-04-28T23:05:37.288Z,99567.19
2023-04-28T23:08:05.121Z,99571.28
2023-04-28T23:10:32.663Z,99567.72
2023-04-28T23:13:00.252Z,99563.78
2023-04-28T23:15:27.719Z,99560.91
2023-04-28T23:17:55.401Z,99569.38
2023-04-28T23:20:23.043Z,99575.00
2023-04-28T23:22:50.658Z,99579.19
2023-04-28T23:25:18.180Z,99591.63
2023-04-28T23:27:46.151Z,99600.75
2023-04-28T23:30:13.824Z,99606.06
2023-04-28T23:32:42.565Z,99609.38
2023-04-28T23:35:10.776Z,99605.72
2023-04-28T23:37:38.274Z,99609.91
2023-04-28T23:40:06.951Z,99599.38
2023-04-28T23:42:34.837Z,99597.63
2023-04-28T23:45:02.542Z,99601.88
2023-04-28T23:47:32.544Z,99595.88
2023-04-28T23:50:00.176Z,99592.31
2023-04-28T23:52:27.675Z,99599.38
2023-04-28T23:54:55.158Z,99600.84
2023-04-28T23:57:22.773Z,99590.19
2023-04-28T23:59:50.594Z,99600.53
